createdAt,value
2023-03-02T00:01:39.755Z,12.10
2023-03-02T00:04:08.237Z,11.25
2023-03-02T00:06:36.868Z,14.73
2023-03-02T00:09:04.816Z,11.75
2023-03-02T00:11:32.883Z,12.05
2023-03-02T00:13:59.772Z,14.57
2023-03-02T00:16:26.544Z,12.45
2023-03-02T00:18:53.531Z,11.82
2023-03-02T00:21:20.375Z,12.45
2023-03-02T00:23:47.392Z,12.82
2023-03-02T00:26:14.262Z,13.27
2023-03-02T00:28:41.826Z,12.80
2023-03-02T00:31:09.281Z,11.85
2023-03-02T00:33:36.499Z,12.80
2023-03-02T00:36:03.811Z,12.38
2023-03-02T00:38:30.714Z,11.63
2023-03-02T00:40:59.364Z,11.75
2023-03-02T00:43:27.387Z,13.07
2023-03-02T00:45:55.076Z,12.50
2023-03-02T00:48:22.177Z,13.63
2023-03-02T00:50:49.054Z,14.77
2023-03-02T00:53:15.892Z,12.35
2023-03-02T00:55:43.033Z,13.40
2023-03-02T00:58:09.998Z,13.48
2023-03-02T01:00:37.151Z,12.15
2023-03-02T01:03:03.954Z,12.38
2023-03-02T01:05:31.138Z,11.23
2023-03-02T01:07:58.195Z,13.50
2023-03-02T01:10:25.099Z,14.18
2023-03-02T01:12:52.144Z,12.63
2023-03-02T01:15:19.373Z,13.63
2023-03-02T01:17:46.773Z,11.93
2023-03-02T01:20:13.883Z,15.25
2023-03-02T01:22:40.736Z,12.70
2023-03-02T01:25:08.118Z,12.70
2023-03-02T01:27:34.976Z,11.40
2023-03-02T01:30:02.204Z,12.25
2023-03-02T01:32:29.163Z,13.27
2023-03-02T01:34:56.041Z,12.88
2023-03-02T01:37:23.187Z,12.20
2023-03-02T01:39:50.419Z,11.93
2023-03-02T01:42:17.560Z,10.95
2023-03-02T01:44:45.243Z,15.02
2023-03-02T01:47:18.039Z,11.70
2023-03-02T01:49:50.910Z,11.88
2023-03-02T01:52:18.568Z,11.82
2023-03-02T01:54:50.003Z,11.45
2023-03-02T01:57:20.402Z,12.45
2023-03-02T01:59:48.391Z,11.93
2023-03-02T02:02:15.994Z,12.65
2023-03-02T02:04:45.038Z,12.80
2023-03-02T02:07:11.945Z,15.18
2023-03-02T02:09:44.951Z,11.95
2023-03-02T02:12:16.885Z,13.50
2023-03-02T02:14:43.928Z,13.43
2023-03-02T02:17:11.580Z,13.30
2023-03-02T02:19:41.527Z,12.85
2023-03-02T02:22:11.378Z,13.35
2023-03-02T02:24:46.248Z,12.93
2023-03-02T02:27:13.532Z,12.77
2023-03-02T02:29:45.979Z,12.57
2023-03-02T02:32:13.170Z,13.23
2023-03-02T02:35:03.519Z,13.27
2023-03-02T02:37:36.026Z,15.05
2023-03-02T02:40:07.402Z,13.68
2023-03-02T02:42:35.977Z,12.20
2023-03-02T02:45:04.748Z,13.02
2023-03-02T02:47:31.803Z,13.65
2023-03-02T02:49:59.123Z,12.70
2023-03-02T02:52:27.476Z,12.98
2023-03-02T02:54:55.853Z,18.67
2023-03-02T02:57:25.236Z,13.60
2023-03-02T02:59:58.010Z,18.05
2023-03-02T03:02:26.210Z,14.48
2023-03-02T03:05:02.971Z,14.25
2023-03-02T03:07:31.088Z,13.02
2023-03-02T03:10:18.531Z,12.15
2023-03-02T03:12:46.330Z,13.35
2023-03-02T03:15:13.717Z,15.07
2023-03-02T03:17:41.047Z,12.27
2023-03-02T03:20:09.226Z,14.88
2023-03-02T03:22:39.556Z,13.20
2023-03-02T03:25:06.565Z,12.60
2023-03-02T03:27:33.403Z,12.65
2023-03-02T03:30:02.104Z,11.80
2023-03-02T03:32:29.207Z,15.27
2023-03-02T03:34:56.521Z,10.25
2023-03-02T03:37:23.754Z,11.57
2023-03-02T03:39:50.698Z,10.38
2023-03-02T03:42:17.642Z,10.15
2023-03-02T03:44:44.745Z,11.60
2023-03-02T03:47:11.590Z,10.75
2023-03-02T03:49:38.899Z,10.82
2023-03-02T03:52:06.044Z,10.13
2023-03-02T03:54:33.107Z,11.25
2023-03-02T03:57:00.382Z,9.35
2023-03-02T03:59:28.185Z,9.90
2023-03-02T04:01:56.504Z,10.50
2023-03-02T04:04:25.224Z,10.18
2023-03-02T04:06:52.427Z,10.07
2023-03-02T04:09:20.183Z,10.90
2023-03-02T04:11:48.408Z,10.18
2023-03-02T04:14:15.649Z,11.30
2023-03-02T04:16:43.111Z,11.02
2023-03-02T04:19:10.377Z,10.10
2023-03-02T04:21:38.049Z,9.25
2023-03-02T04:24:05.019Z,9.63
2023-03-02T04:26:32.851Z,9.13
2023-03-02T04:28:59.933Z,9.77
2023-03-02T04:31:27.016Z,12.05
2023-03-02T04:33:54.456Z,10.07
2023-03-02T04:36:21.435Z,10.75
2023-03-02T04:38:49.317Z,9.30
2023-03-02T04:41:16.680Z,9.70
2023-03-02T04:43:44.526Z,9.70
2023-03-02T04:46:16.243Z,10.02
2023-03-02T04:48:43.208Z,9.73
2023-03-02T04:51:16.826Z,9.82
2023-03-02T04:53:43.746Z,10.23
2023-03-02T04:56:10.955Z,10.48
2023-03-02T04:58:38.134Z,11.27
2023-03-02T05:01:05.084Z,11.02
2023-03-02T05:03:31.833Z,10.52
2023-03-02T05:05:58.687Z,11.10
2023-03-02T05:08:25.580Z,11.20
2023-03-02T05:10:52.894Z,11.25
2023-03-02T05:13:19.787Z,11.07
2023-03-02T05:15:46.699Z,13.45
2023-03-02T05:18:13.580Z,12.23
2023-03-02T05:20:40.837Z,15.18
2023-03-02T05:23:08.861Z,24.42
2023-03-02T05:25:36.646Z,15.82
2023-03-02T05:28:04.227Z,19.25
2023-03-02T05:30:32.676Z,13.98
2023-03-02T05:32:59.670Z,20.35
2023-03-02T05:35:26.681Z,14.63
2023-03-02T05:37:53.435Z,17.30
2023-03-02T05:40:20.848Z,15.77
2023-03-02T05:42:49.364Z,17.75
2023-03-02T05:45:26.515Z,15.73
2023-03-02T05:47:53.429Z,19.50
2023-03-02T05:50:20.554Z,18.98
2023-03-02T05:52:47.560Z,15.85
2023-03-02T05:55:15.077Z,17.58
2023-03-02T05:57:42.202Z,14.20
2023-03-02T06:00:10.165Z,17.75
2023-03-02T06:02:39.398Z,13.40
2023-03-02T06:05:07.607Z,14.15
2023-03-02T06:07:34.474Z,14.05
2023-03-02T06:10:01.244Z,17.50
2023-03-02T06:12:28.254Z,17.33
2023-03-02T06:14:55.482Z,13.68
2023-03-02T06:17:22.574Z,15.25
2023-03-02T06:19:53.139Z,12.75
2023-03-02T06:22:20.018Z,16.42
2023-03-02T06:24:46.752Z,14.25
2023-03-02T06:27:13.853Z,12.70
2023-03-02T06:29:40.721Z,13.70
2023-03-02T06:32:08.022Z,16.33
2023-03-02T06:34:35.505Z,13.52
2023-03-02T06:37:02.595Z,14.27
2023-03-02T06:39:30.495Z,12.35
2023-03-02T06:41:57.704Z,14.20
2023-03-02T06:44:24.806Z,14.52
2023-03-02T06:46:51.577Z,15.32
2023-03-02T06:49:18.587Z,13.98
2023-03-02T06:51:45.433Z,13.30
2023-03-02T06:54:12.216Z,13.98
2023-03-02T06:56:41.013Z,12.88
2023-03-02T06:59:07.986Z,11.30
2023-03-02T07:01:36.288Z,11.88
2023-03-02T07:04:03.631Z,17.92
2023-03-02T07:06:30.444Z,11.60
2023-03-02T07:08:57.456Z,11.27
2023-03-02T07:11:24.382Z,12.60
2023-03-02T07:13:51.432Z,11.38
2023-03-02T07:16:18.572Z,13.43
2023-03-02T07:18:45.427Z,11.00
2023-03-02T07:21:12.540Z,14.30
2023-03-02T07:23:39.529Z,11.32
2023-03-02T07:26:08.610Z,12.82
2023-03-02T07:28:36.650Z,11.00
2023-03-02T07:31:03.649Z,13.23
2023-03-02T07:33:30.574Z,14.73
2023-03-02T07:35:57.655Z,12.30
2023-03-02T07:38:24.619Z,11.75
2023-03-02T07:40:51.791Z,11.55
2023-03-02T07:43:18.784Z,13.50
2023-03-02T07:45:45.934Z,15.20
2023-03-02T07:48:12.687Z,12.55
2023-03-02T07:50:39.537Z,12.88
2023-03-02T07:53:06.316Z,11.55
2023-03-02T07:55:33.571Z,11.57
2023-03-02T07:58:00.366Z,10.82
2023-03-02T08:00:28.163Z,13.05
2023-03-02T08:02:54.998Z,11.38
2023-03-02T08:05:21.806Z,12.85
2023-03-02T08:07:48.873Z,12.20
2023-03-02T08:10:15.761Z,11.52
2023-03-02T08:12:44.033Z,11.40
2023-03-02T08:15:11.966Z,11.65
2023-03-02T08:17:38.855Z,11.55
2023-03-02T08:20:05.886Z,11.10
2023-03-02T08:22:32.677Z,13.73
2023-03-02T08:24:59.904Z,10.50
2023-03-02T08:27:26.688Z,14.98
2023-03-02T08:29:54.388Z,11.27
2023-03-02T08:32:21.412Z,14.05
2023-03-02T08:34:51.652Z,14.68
2023-03-02T08:37:19.750Z,10.95
2023-03-02T08:39:46.685Z,11.57
2023-03-02T08:42:13.868Z,10.57
2023-03-02T08:44:40.948Z,11.65
2023-03-02T08:47:07.892Z,10.80
2023-03-02T08:49:34.739Z,10.65
2023-03-02T08:52:01.606Z,11.75
2023-03-02T08:54:28.815Z,10.05
2023-03-02T08:56:55.584Z,11.10
2023-03-02T08:59:22.547Z,11.32
2023-03-02T09:01:49.976Z,10.13
2023-03-02T09:04:16.936Z,10.52
2023-03-02T09:06:45.103Z,10.32
2023-03-02T09:09:13.653Z,11.20
2023-03-02T09:11:42.288Z,9.45
2023-03-02T09:14:09.350Z,9.82
2023-03-02T09:16:36.695Z,9.70
2023-03-02T09:19:04.090Z,10.63
2023-03-02T09:21:32.563Z,11.13
2023-03-02T09:23:59.581Z,11.07
2023-03-02T09:26:26.792Z,10.45
2023-03-02T09:28:53.737Z,10.25
2023-03-02T09:31:20.988Z,10.05
2023-03-02T09:33:47.751Z,12.18
2023-03-02T09:36:22.708Z,10.85
2023-03-02T09:38:49.623Z,10.77
2023-03-02T09:41:19.637Z,11.13
2023-03-02T09:43:49.704Z,11.75
2023-03-02T09:46:35.200Z,10.63
2023-03-02T09:49:21.249Z,10.50
2023-03-02T09:51:54.893Z,10.77
2023-03-02T09:54:27.084Z,16.38
2023-03-02T09:56:56.038Z,11.95
2023-03-02T09:59:41.470Z,11.05
2023-03-02T10:02:26.802Z,10.98
2023-03-02T10:04:54.841Z,12.05
2023-03-02T10:07:36.716Z,11.23
2023-03-02T10:12:44.781Z,13.32
2023-03-02T10:15:16.788Z,12.15
2023-03-02T10:17:46.652Z,11.05
2023-03-02T10:20:49.913Z,15.98
2023-03-02T10:23:25.052Z,10.52
2023-03-02T10:26:01.577Z,11.40
2023-03-02T10:28:30.912Z,12.90
2023-03-02T10:31:08.057Z,11.73
2023-03-02T10:33:36.699Z,10.43
2023-03-02T10:36:05.128Z,12.73
2023-03-02T10:38:32.360Z,12.23
2023-03-02T10:41:03.756Z,12.23
2023-03-02T10:43:32.112Z,12.25
2023-03-02T10:46:00.420Z,12.10
2023-03-02T10:48:27.461Z,11.93
2023-03-02T10:50:55.419Z,12.55
2023-03-02T10:53:22.344Z,12.88
2023-03-02T10:55:50.733Z,12.18
2023-03-02T10:58:30.927Z,11.80
2023-03-02T11:01:02.057Z,13.50
2023-03-02T11:03:29.781Z,12.32
2023-03-02T11:05:57.435Z,12.13
2023-03-02T11:08:26.524Z,13.10
2023-03-02T11:10:59.873Z,11.40
2023-03-02T11:13:32.350Z,13.70
2023-03-02T11:16:02.595Z,12.52
2023-03-02T11:18:36.821Z,12.50
2023-03-02T11:21:05.730Z,12.63
2023-03-02T11:23:51.045Z,13.63
2023-03-02T11:26:25.879Z,12.73
2023-03-02T11:29:01.007Z,14.65
2023-03-02T11:31:32.769Z,12.80
2023-03-02T11:34:17.255Z,11.95
2023-03-02T11:36:51.169Z,18.35
2023-03-02T11:39:23.064Z,12.57
2023-03-02T11:41:50.755Z,12.57
2023-03-02T11:44:19.338Z,13.20
2023-03-02T11:46:49.681Z,12.13
2023-03-02T11:49:20.678Z,12.38
2023-03-02T11:52:06.652Z,10.70
2023-03-02T11:54:39.088Z,12.25
2023-03-02T11:57:06.334Z,11.27
2023-03-02T11:59:34.483Z,14.82
2023-03-02T12:02:01.982Z,15.13
2023-03-02T12:04:32.361Z,12.35
2023-03-02T12:07:00.908Z,10.65
2023-03-02T12:09:33.328Z,12.18
2023-03-02T12:12:12.121Z,11.65
2023-03-02T12:14:40.853Z,16.13
2023-03-02T12:17:31.220Z,12.30
2023-03-02T12:20:07.534Z,11.98
2023-03-02T12:22:35.036Z,12.30
2023-03-02T12:25:08.217Z,11.82
2023-03-02T12:27:39.441Z,11.93
2023-03-02T12:30:09.673Z,13.00
2023-03-02T12:32:36.902Z,11.63
2023-03-02T12:35:03.711Z,11.27
2023-03-02T12:37:41.979Z,12.95
2023-03-02T12:40:11.989Z,11.75
2023-03-02T12:42:38.857Z,12.75
2023-03-02T12:45:16.994Z,13.15
2023-03-02T12:47:46.014Z,15.20
2023-03-02T12:50:22.086Z,18.98
2023-03-02T12:53:02.164Z,14.35
2023-03-02T12:55:29.380Z,14.13
2023-03-02T12:58:01.193Z,15.25
2023-03-02T13:00:30.559Z,13.75
2023-03-02T13:02:58.205Z,12.60
2023-03-02T13:05:27.378Z,13.68
2023-03-02T13:08:02.767Z,12.57
2023-03-02T13:10:32.550Z,13.50
2023-03-02T13:13:00.300Z,13.13
2023-03-02T13:15:27.238Z,15.48
2023-03-02T13:17:55.855Z,13.40
2023-03-02T13:20:24.491Z,13.68
2023-03-02T13:22:51.665Z,13.93
2023-03-02T13:25:24.041Z,13.98
2023-03-02T13:28:00.938Z,15.93
2023-03-02T13:30:29.304Z,13.05
2023-03-02T13:33:03.841Z,13.95
2023-03-02T13:35:31.911Z,13.07
2023-03-02T13:38:25.798Z,14.25
2023-03-02T13:40:54.063Z,13.88
2023-03-02T13:43:22.284Z,13.55
2023-03-02T13:45:56.165Z,15.38
2023-03-02T13:48:23.111Z,14.82
2023-03-02T13:51:10.127Z,19.27
2023-03-02T13:53:38.154Z,15.88
2023-03-02T13:56:05.029Z,13.25
2023-03-02T13:58:38.242Z,12.88
2023-03-02T14:01:06.007Z,12.57
2023-03-02T14:03:32.894Z,12.52
2023-03-02T14:06:00.353Z,11.15
2023-03-02T14:08:28.645Z,12.77
2023-03-02T14:11:00.227Z,11.57
2023-03-02T14:13:30.039Z,13.35
2023-03-02T14:15:57.215Z,14.15
2023-03-02T14:18:27.404Z,12.85
2023-03-02T14:20:54.950Z,12.27
2023-03-02T14:23:22.221Z,12.60
2023-03-02T14:25:50.241Z,14.02
2023-03-02T14:28:21.397Z,14.85
2023-03-02T14:30:48.987Z,14.50
2023-03-02T14:33:16.611Z,12.45
2023-03-02T14:35:44.371Z,14.55
2023-03-02T14:38:11.828Z,13.63
2023-03-02T14:40:39.292Z,15.10
2023-03-02T14:43:06.193Z,13.60
2023-03-02T14:45:34.854Z,13.55
2023-03-02T14:48:01.698Z,13.85
2023-03-02T14:50:28.462Z,15.55
2023-03-02T14:52:56.829Z,15.30
2023-03-02T14:55:25.926Z,14.27
2023-03-02T14:57:55.752Z,14.30
2023-03-02T15:00:22.992Z,14.68
2023-03-02T15:02:50.415Z,14.38
2023-03-02T15:05:17.758Z,14.57
2023-03-02T15:07:45.307Z,15.25
2023-03-02T15:10:16.778Z,13.88
2023-03-02T15:12:43.719Z,16.30
2023-03-02T15:15:10.937Z,16.55
2023-03-02T15:17:37.872Z,18.17
2023-03-02T15:20:07.035Z,17.00
2023-03-02T15:22:34.491Z,16.13
2023-03-02T15:25:01.756Z,16.58
2023-03-02T15:27:28.593Z,19.90
2023-03-02T15:29:56.867Z,16.80
2023-03-02T15:32:24.152Z,15.55
2023-03-02T15:34:51.172Z,17.25
2023-03-02T15:37:18.005Z,15.85
2023-03-02T15:39:45.047Z,19.33
2023-03-02T15:42:13.869Z,15.30
2023-03-02T15:44:40.961Z,15.43
2023-03-02T15:47:07.864Z,14.07
2023-03-02T15:49:34.717Z,14.57
2023-03-02T15:52:01.527Z,15.38
2023-03-02T15:54:28.716Z,14.88
2023-03-02T15:56:56.064Z,14.35
2023-03-02T15:59:24.247Z,13.55
2023-03-02T16:01:51.197Z,14.48
2023-03-02T16:04:18.257Z,14.45
2023-03-02T16:06:46.186Z,15.00
2023-03-02T16:09:13.683Z,13.55
2023-03-02T16:11:40.712Z,14.02
2023-03-02T16:14:07.569Z,13.82
2023-03-02T16:16:35.861Z,13.15
2023-03-02T16:19:02.838Z,14.43
2023-03-02T16:21:29.922Z,15.77
2023-03-02T16:24:03.360Z,14.50
2023-03-02T16:26:32.632Z,13.38
2023-03-02T16:28:59.644Z,14.85
2023-03-02T16:31:27.098Z,13.48
2023-03-02T16:33:54.910Z,14.52
2023-03-02T16:36:23.380Z,14.65
2023-03-02T16:38:50.258Z,14.88
2023-03-02T16:41:21.332Z,15.57
2023-03-02T16:43:49.438Z,18.67
2023-03-02T16:46:16.625Z,14.65
2023-03-02T16:48:46.575Z,13.57
2023-03-02T16:51:13.944Z,13.85
2023-03-02T16:53:43.753Z,17.65
2023-03-02T16:56:11.680Z,14.20
2023-03-02T16:58:39.766Z,15.55
2023-03-02T17:01:08.080Z,15.80
2023-03-02T17:03:35.163Z,15.05
2023-03-02T17:06:02.121Z,15.57
2023-03-02T17:08:29.135Z,14.32
2023-03-02T17:10:56.137Z,15.18
2023-03-02T17:13:22.968Z,15.00
2023-03-02T17:15:50.177Z,16.30
2023-03-02T17:18:18.224Z,16.02
2023-03-02T17:20:45.153Z,17.75
2023-03-02T17:23:13.072Z,14.45
2023-03-02T17:25:40.007Z,16.13
2023-03-02T17:28:06.942Z,17.02
2023-03-02T17:30:33.898Z,15.73
2023-03-02T17:33:00.748Z,15.15
2023-03-02T17:35:27.818Z,15.70
2023-03-02T17:37:54.694Z,16.73
2023-03-02T17:40:22.043Z,15.77
2023-03-02T17:42:49.038Z,15.70
2023-03-02T17:45:21.539Z,16.55
2023-03-02T17:47:52.657Z,19.05
2023-03-02T17:50:19.718Z,18.85
2023-03-02T17:52:47.125Z,19.25
2023-03-02T17:55:14.337Z,19.20
2023-03-02T17:57:41.265Z,17.30
2023-03-02T18:00:10.152Z,17.90
2023-03-02T18:02:37.510Z,17.33
2023-03-02T18:05:07.121Z,16.45
2023-03-02T18:07:33.892Z,15.80
2023-03-02T18:10:00.636Z,16.77
2023-03-02T18:12:27.895Z,18.45
2023-03-02T18:14:54.727Z,16.77
2023-03-02T18:17:21.609Z,16.38
2023-03-02T18:19:48.790Z,17.48
2023-03-02T18:22:15.860Z,17.17
2023-03-02T18:24:42.948Z,16.58
2023-03-02T18:27:09.814Z,17.15
2023-03-02T18:29:36.685Z,17.85
2023-03-02T18:32:04.044Z,17.60
2023-03-02T18:34:30.987Z,17.13
2023-03-02T18:36:57.912Z,17.48
2023-03-02T18:39:24.760Z,18.20
2023-03-02T18:41:52.589Z,19.83
2023-03-02T18:44:20.053Z,18.15
2023-03-02T18:46:46.981Z,18.25
2023-03-02T18:49:13.797Z,20.15
2023-03-02T18:51:40.617Z,17.23
2023-03-02T18:54:07.734Z,21.77
2023-03-02T18:56:34.607Z,18.50
2023-03-02T18:59:05.056Z,17.45
2023-03-02T19:01:32.145Z,17.27
2023-03-02T19:04:01.008Z,17.20
2023-03-02T19:06:28.445Z,18.40
2023-03-02T19:08:55.690Z,16.13
2023-03-02T19:11:23.538Z,17.75
2023-03-02T19:13:50.446Z,17.35
2023-03-02T19:16:18.497Z,16.90
2023-03-02T19:18:45.546Z,15.88
2023-03-02T19:21:12.438Z,17.10
2023-03-02T19:23:40.916Z,17.15
2023-03-02T19:26:10.491Z,17.58
2023-03-02T19:28:39.928Z,18.08
2023-03-02T19:31:09.245Z,17.40
2023-03-02T19:33:37.106Z,20.13
2023-03-02T19:36:04.939Z,18.48
2023-03-02T19:38:32.021Z,17.73
2023-03-02T19:41:00.306Z,18.77
2023-03-02T19:43:28.281Z,20.83
2023-03-02T19:45:55.457Z,20.80
2023-03-02T19:48:22.456Z,18.55
2023-03-02T19:50:49.574Z,17.63
2023-03-02T19:53:17.195Z,16.58
2023-03-02T19:55:44.436Z,17.42
2023-03-02T19:58:17.443Z,18.27
2023-03-02T20:00:44.477Z,17.48
2023-03-02T20:03:11.419Z,17.83
2023-03-02T20:05:38.880Z,17.77
2023-03-02T20:08:06.179Z,18.17
2023-03-02T20:10:35.851Z,18.27
2023-03-02T20:13:03.837Z,17.30
2023-03-02T20:15:32.079Z,18.30
2023-03-02T20:17:59.625Z,19.88
2023-03-02T20:20:27.240Z,17.75
2023-03-02T20:22:54.336Z,18.05
2023-03-02T20:25:21.734Z,20.20
2023-03-02T20:27:49.376Z,18.13
2023-03-02T20:30:18.330Z,15.90
2023-03-02T20:32:45.245Z,21.38
2023-03-02T20:35:12.263Z,20.45
2023-03-02T20:37:39.454Z,20.63
2023-03-02T20:40:07.941Z,19.90
2023-03-02T20:42:36.506Z,19.38
2023-03-02T20:45:04.533Z,21.05
2023-03-02T20:47:31.442Z,19.27
2023-03-02T20:49:58.367Z,18.73
2023-03-02T20:52:25.702Z,20.85
2023-03-02T20:54:53.146Z,22.52
2023-03-02T20:57:21.232Z,20.30
2023-03-02T20:59:48.395Z,21.65
2023-03-02T21:02:15.974Z,20.70
2023-03-02T21:04:43.651Z,21.85
2023-03-02T21:07:11.224Z,20.88
2023-03-02T21:09:38.138Z,22.33
2023-03-02T21:12:05.515Z,22.85
2023-03-02T21:14:33.673Z,22.17
2023-03-02T21:17:02.105Z,21.42
2023-03-02T21:19:29.602Z,23.92
2023-03-02T21:21:56.858Z,24.67
2023-03-02T21:24:23.942Z,22.20
2023-03-02T21:26:51.789Z,24.05
2023-03-02T21:29:19.558Z,22.40
2023-03-02T21:31:48.087Z,23.10
2023-03-02T21:34:15.890Z,21.20
2023-03-02T21:36:43.115Z,21.75
2023-03-02T21:39:11.829Z,21.13
2023-03-02T21:41:38.755Z,21.10
2023-03-02T21:44:06.047Z,22.50
2023-03-02T21:46:33.769Z,24.25
2023-03-02T21:49:00.906Z,22.30
2023-03-02T21:51:28.020Z,22.85
2023-03-02T21:53:55.037Z,21.48
2023-03-02T21:56:23.560Z,22.05
2023-03-02T21:58:51.334Z,21.15
2023-03-02T22:01:18.525Z,22.75
2023-03-02T22:03:45.477Z,21.60
2023-03-02T22:06:16.692Z,21.95
2023-03-02T22:08:43.595Z,21.88
2023-03-02T22:11:24.879Z,23.25
2023-03-02T22:13:52.813Z,21.27
2023-03-02T22:16:24.429Z,21.58
2023-03-02T22:21:27.958Z,20.60
2023-03-02T22:24:01.003Z,22.80
2023-03-02T22:26:27.821Z,21.80
2023-03-02T22:28:58.122Z,22.83
2023-03-02T22:31:24.984Z,23.13
2023-03-02T22:33:51.951Z,21.50
2023-03-02T22:36:21.067Z,21.65
2023-03-02T22:38:48.278Z,21.38
2023-03-02T22:41:16.486Z,22.10
2023-03-02T22:43:43.754Z,20.48
2023-03-02T22:46:10.746Z,21.23
2023-03-02T22:48:38.600Z,21.83
2023-03-02T22:51:19.304Z,19.63
2023-03-02T22:53:53.395Z,20.10
2023-03-02T22:56:28.389Z,20.77
2023-03-02T22:58:55.605Z,20.77
2023-03-02T23:01:25.231Z,20.25
2023-03-02T23:03:59.695Z,21.20
2023-03-02T23:06:28.610Z,20.23
2023-03-02T23:09:00.192Z,21.35
2023-03-02T23:11:28.467Z,19.15
2023-03-02T23:13:55.973Z,21.88
2023-03-02T23:16:22.877Z,18.70
2023-03-02T23:18:50.516Z,19.23
2023-03-02T23:21:22.278Z,21.27
2023-03-02T23:26:19.663Z,20.25
2023-03-02T23:28:48.040Z,18.02
2023-03-02T23:31:15.577Z,20.17
2023-03-02T23:33:42.356Z,20.65
2023-03-02T23:36:09.915Z,20.20
2023-03-02T23:38:36.743Z,20.13
2023-03-02T23:41:03.658Z,19.63
2023-03-02T23:43:30.561Z,19.27
2023-03-02T23:45:57.414Z,20.30
2023-03-02T23:48:24.821Z,19.13
2023-03-02T23:50:51.721Z,19.42
2023-03-02T23:53:18.756Z,20.13
2023-03-02T23:55:49.816Z,19.77
2023-03-02T23:58:16.986Z,19.90
